Terminal Aerodrome Forecast
Issued by NWS Shreveport, LA

Home | Current Version | Previous Version | Text Only | Print | Product List | Glossary On
Versions: 1 2 3 4 5 6 7 8 9 10 11 12 13 14 15 16 17 18 19
000
FTUS44 KSHV 021700
TAFELD
TAF
KELD 021738Z 0218/0318 29006KT P6SM VCSH BKN035
      TEMPO 0218/0222 VRB15G25KT 3SM TSRA BKN025 OVC045CB
     FM030100 17004KT P6SM FEW060 BKN250
     FM030800 00000KT P6SM BKN012
      TEMPO 0310/0314 OVC006
     FM031500 VRB05KT P6SM BKN024
     FM031700 21006KT P6SM BKN035=

USA.gov is the U.S. government's official web portal to all federal, state and local government web resources and services.